createdAt,value
2023-07-05T00:00:06.659Z,68.66
2023-07-05T00:01:06.436Z,68.83
2023-07-05T00:01:46.464Z,68.74
2023-07-05T00:02:26.470Z,68.83
2023-07-05T00:03:06.754Z,68.59
2023-07-05T00:03:47.413Z,68.55
2023-07-05T00:04:27.488Z,68.31
2023-07-05T00:05:07.427Z,68.97
2023-07-05T00:05:47.475Z,68.51
2023-07-05T00:06:27.397Z,68.62
2023-07-05T00:07:07.693Z,69.27
2023-07-05T00:07:50.283Z,69.23
2023-07-05T00:08:30.536Z,69.66
2023-07-05T00:09:11.391Z,69.21
2023-07-05T00:09:51.491Z,69.57
2023-07-05T00:10:32.598Z,69.66
2023-07-05T00:11:15.493Z,69.86
2023-07-05T00:11:56.432Z,69.22
2023-07-05T00:12:36.497Z,69.73
2023-07-05T00:13:16.514Z,69.80
2023-07-05T00:13:56.531Z,70.27
2023-07-05T00:14:39.543Z,69.83
2023-07-05T00:15:22.486Z,69.32
2023-07-05T00:16:03.476Z,69.67
2023-07-05T00:16:43.617Z,69.86
2023-07-05T00:17:23.491Z,69.69
2023-07-05T00:18:05.090Z,69.58
2023-07-05T00:18:46.377Z,69.92
2023-07-05T00:19:26.461Z,69.77
2023-07-05T00:20:07.389Z,69.70
2023-07-05T00:20:47.569Z,69.70
2023-07-05T00:21:27.361Z,69.58
2023-07-05T00:22:07.459Z,69.71
2023-07-05T00:22:48.392Z,70.01
2023-07-05T00:23:28.610Z,69.96
2023-07-05T00:24:09.375Z,69.79
2023-07-05T00:24:49.501Z,70.10
2023-07-05T00:25:29.402Z,70.40
2023-07-05T00:26:11.435Z,69.99
2023-07-05T00:26:51.381Z,69.80
2023-07-05T00:27:32.536Z,70.17
2023-07-05T00:28:12.360Z,69.59
2023-07-05T00:28:53.431Z,70.30
2023-07-05T00:29:34.378Z,69.79
2023-07-05T00:30:17.568Z,69.59
2023-07-05T00:30:59.406Z,69.59
2023-07-05T00:31:39.805Z,69.80
2023-07-05T00:32:21.451Z,69.87
2023-07-05T00:33:01.521Z,69.98
2023-07-05T00:33:42.351Z,69.77
2023-07-05T00:34:22.460Z,69.44
2023-07-05T00:35:02.397Z,69.62
2023-07-05T00:35:42.479Z,69.75
2023-07-05T00:36:23.358Z,69.70
2023-07-05T00:37:03.484Z,69.60
2023-07-05T00:37:43.380Z,69.59
2023-07-05T00:38:24.447Z,69.81
2023-07-05T00:39:04.412Z,69.83
2023-07-05T00:39:44.433Z,70.50
2023-07-05T00:40:26.371Z,69.61
2023-07-05T00:41:06.617Z,69.94
2023-07-05T00:41:46.354Z,69.97
2023-07-05T00:42:26.551Z,70.16
2023-07-05T00:43:07.397Z,69.85
2023-07-05T00:43:55.618Z,70.19
2023-07-05T00:44:36.506Z,70.65
2023-07-05T00:45:19.474Z,70.19
2023-07-05T00:46:06.386Z,70.36
2023-07-05T00:46:51.422Z,70.60
2023-07-05T00:47:36.388Z,70.36
2023-07-05T00:48:21.521Z,69.91
2023-07-05T00:49:23.386Z,70.00
2023-07-05T00:50:10.368Z,70.26
2023-07-05T00:50:49.497Z,69.85
2023-07-05T00:51:48.391Z,69.96
2023-07-05T00:52:24.499Z,70.73
2023-07-05T00:53:12.356Z,70.39
2023-07-05T00:53:49.136Z,70.22
2023-07-05T00:54:48.354Z,70.54
2023-07-05T00:55:30.399Z,70.42
2023-07-05T00:56:46.379Z,70.79
2023-07-05T00:57:44.409Z,70.19
2023-07-05T00:58:38.374Z,70.39
2023-07-05T00:59:34.378Z,70.80
2023-07-05T01:00:33.371Z,70.79
2023-07-05T01:01:27.424Z,70.62
2023-07-05T01:02:21.377Z,70.58
2023-07-05T01:03:19.380Z,70.29
2023-07-05T01:04:14.349Z,70.29
2023-07-05T01:05:09.441Z,70.23
2023-07-05T01:06:00.349Z,70.96
2023-07-05T01:06:34.500Z,71.04
2023-07-05T01:07:21.416Z,71.24
2023-07-05T01:07:55.472Z,71.37
2023-07-05T01:08:43.347Z,71.35
2023-07-05T01:09:17.448Z,71.54
2023-07-05T01:10:04.422Z,71.47
2023-07-05T01:10:38.479Z,71.13
2023-07-05T01:11:33.387Z,70.92
2023-07-05T01:12:46.656Z,72.19
2023-07-05T01:13:53.390Z,71.69
2023-07-05T01:15:07.675Z,71.65
2023-07-05T01:16:12.390Z,71.59
2023-07-05T01:17:15.425Z,71.40
2023-07-05T01:18:34.415Z,71.06
2023-07-05T01:20:12.516Z,71.68
2023-07-05T01:21:20.343Z,71.70
2023-07-05T01:22:23.415Z,71.32
2023-07-05T01:24:09.360Z,71.47
2023-07-05T01:25:09.393Z,71.17
2023-07-05T01:26:41.361Z,71.33
2023-07-05T01:27:57.380Z,71.21
2023-07-05T01:29:00.299Z,71.03
2023-07-05T01:30:09.377Z,70.66
2023-07-05T01:31:18.366Z,71.17
2023-07-05T01:32:43.434Z,71.00
2023-07-05T01:33:55.364Z,71.24
2023-07-05T01:35:07.453Z,71.11
2023-07-05T01:35:56.618Z,71.41
2023-07-05T01:36:38.581Z,71.25
2023-07-05T01:37:52.333Z,71.27
2023-07-05T01:38:46.329Z,71.13
2023-07-05T01:39:26.316Z,71.06
2023-07-05T01:40:08.456Z,71.01
2023-07-05T01:41:08.356Z,71.08
2023-07-05T01:41:48.446Z,71.04
2023-07-05T01:42:38.303Z,71.56
2023-07-05T01:43:20.475Z,71.53
2023-07-05T01:44:01.326Z,71.42
2023-07-05T01:44:41.368Z,71.08
2023-07-05T01:45:16.376Z,71.27
2023-07-05T01:46:35.324Z,71.57
2023-07-05T01:47:20.447Z,71.74
2023-07-05T01:48:21.293Z,71.58
2023-07-05T01:49:48.340Z,71.54
2023-07-05T01:50:49.368Z,71.41
2023-07-05T01:51:57.356Z,71.60
2023-07-05T01:53:32.307Z,72.57
2023-07-05T01:54:57.350Z,72.11
2023-07-05T01:56:11.397Z,72.60
2023-07-05T01:57:30.308Z,72.57
2023-07-05T01:58:33.331Z,72.65
2023-07-05T01:59:27.493Z,73.46
2023-07-05T02:00:19.389Z,73.27
2023-07-05T02:00:55.417Z,73.33
2023-07-05T02:01:43.291Z,72.77
2023-07-05T02:02:18.535Z,72.86
2023-07-05T02:03:10.514Z,72.80
2023-07-05T02:03:48.130Z,72.35
2023-07-05T02:04:36.295Z,72.32
2023-07-05T02:05:11.393Z,72.68
2023-07-05T02:05:53.462Z,72.77
2023-07-05T02:06:34.421Z,72.33
2023-07-05T02:07:15.342Z,72.20
2023-07-05T02:07:55.390Z,73.04
2023-07-05T02:08:37.306Z,72.67
2023-07-05T02:09:17.376Z,72.71
2023-07-05T02:09:57.307Z,72.70
2023-07-05T02:10:39.473Z,72.28
2023-07-05T02:11:19.283Z,72.49
2023-07-05T02:11:59.359Z,72.16
2023-07-05T02:12:39.330Z,72.04
2023-07-05T02:13:20.107Z,72.37
2023-07-05T02:14:00.401Z,72.26
2023-07-05T02:14:41.413Z,72.50
2023-07-05T02:15:22.368Z,72.95
2023-07-05T02:16:02.492Z,72.93
2023-07-05T02:16:42.336Z,72.79
2023-07-05T02:17:23.483Z,72.80
2023-07-05T02:18:03.404Z,72.88
2023-07-05T02:18:44.454Z,72.59
2023-07-05T02:19:25.365Z,72.92
2023-07-05T02:20:05.577Z,73.37
2023-07-05T02:20:46.293Z,73.09
2023-07-05T02:21:26.431Z,73.14
2023-07-05T02:22:07.370Z,72.89
2023-07-05T02:22:48.428Z,72.84
2023-07-05T02:23:30.280Z,73.59
2023-07-05T02:24:11.387Z,73.02
2023-07-05T02:24:51.357Z,73.09
2023-07-05T02:25:31.370Z,73.16
2023-07-05T02:26:13.339Z,73.51
2023-07-05T02:26:54.385Z,73.16
2023-07-05T02:27:36.418Z,73.13
2023-07-05T02:28:17.391Z,73.36
2023-07-05T02:28:57.279Z,73.07
2023-07-05T02:29:37.425Z,72.77
2023-07-05T02:30:20.275Z,73.14
2023-07-05T02:31:01.392Z,73.29
2023-07-05T02:31:42.268Z,73.32
2023-07-05T02:32:22.692Z,73.09
2023-07-05T02:33:02.325Z,73.43
2023-07-05T02:33:44.797Z,73.80
2023-07-05T02:34:27.277Z,73.61
2023-07-05T02:35:09.707Z,73.77
2023-07-05T02:35:50.298Z,73.15
2023-07-05T02:36:30.408Z,73.24
2023-07-05T02:37:11.293Z,73.23
2023-07-05T02:37:51.433Z,73.70
2023-07-05T02:38:31.293Z,73.34
2023-07-05T02:39:12.412Z,73.51
2023-07-05T02:39:53.263Z,73.32
2023-07-05T02:40:33.969Z,73.35
2023-07-05T02:41:16.311Z,73.26
2023-07-05T02:41:56.394Z,73.39
2023-07-05T02:42:36.285Z,72.81
2023-07-05T02:43:17.361Z,73.15
2023-07-05T02:43:59.271Z,73.86
2023-07-05T02:44:41.679Z,73.16
2023-07-05T02:45:22.288Z,72.90
2023-07-05T02:46:02.519Z,72.81
2023-07-05T02:46:43.321Z,72.92
2023-07-05T02:47:25.477Z,73.23
2023-07-05T02:48:05.300Z,73.03
2023-07-05T02:48:46.327Z,72.93
2023-07-05T02:49:27.275Z,73.03
2023-07-05T02:50:08.197Z,73.22
2023-07-05T02:50:48.236Z,73.22
2023-07-05T02:51:28.475Z,73.11
2023-07-05T02:52:08.313Z,73.59
2023-07-05T02:52:49.411Z,72.99
2023-07-05T02:53:29.275Z,73.38
2023-07-05T02:54:09.386Z,72.73
2023-07-05T02:54:50.313Z,72.41
2023-07-05T02:55:31.359Z,73.11
2023-07-05T02:56:12.270Z,72.82
2023-07-05T02:56:52.486Z,73.03
2023-07-05T02:57:32.253Z,73.36
2023-07-05T02:58:12.428Z,73.06
2023-07-05T02:58:53.326Z,73.01
2023-07-05T02:59:34.515Z,73.52
2023-07-05T03:00:15.307Z,73.47
2023-07-05T03:00:55.464Z,73.07
2023-07-05T03:01:35.370Z,73.18
2023-07-05T03:02:15.586Z,73.41
2023-07-05T03:02:55.314Z,73.17
2023-07-05T03:03:36.338Z,73.64
2023-07-05T03:04:16.262Z,73.37
2023-07-05T03:04:56.344Z,73.31
2023-07-05T03:05:36.293Z,73.48
2023-07-05T03:06:16.435Z,73.34
2023-07-05T03:06:56.296Z,73.68
2023-07-05T03:07:37.458Z,73.37
2023-07-05T03:08:18.229Z,73.56
2023-07-05T03:08:58.315Z,73.65
2023-07-05T03:09:38.207Z,73.49
2023-07-05T03:10:18.306Z,73.64
2023-07-05T03:11:01.229Z,73.90
2023-07-05T03:11:42.344Z,73.74
2023-07-05T03:12:23.334Z,73.71
2023-07-05T03:13:03.379Z,73.76
2023-07-05T03:13:44.262Z,74.21
2023-07-05T03:14:24.352Z,73.85
2023-07-05T03:15:06.247Z,74.11
2023-07-05T03:15:46.326Z,74.07
2023-07-05T03:16:26.269Z,73.63
2023-07-05T03:17:06.351Z,73.61
2023-07-05T03:17:47.323Z,73.43
2023-07-05T03:18:27.359Z,73.83
2023-07-05T03:19:07.222Z,73.73
2023-07-05T03:19:47.325Z,73.78
2023-07-05T03:20:27.263Z,73.81
2023-07-05T03:21:07.418Z,73.54
2023-07-05T03:21:48.262Z,73.72
2023-07-05T03:22:28.434Z,73.87
2023-07-05T03:23:08.410Z,73.83
2023-07-05T03:23:49.427Z,73.33
2023-07-05T03:24:29.277Z,73.53
2023-07-05T03:25:09.413Z,73.92
2023-07-05T03:26:04.233Z,73.19
2023-07-05T03:26:44.379Z,73.54
2023-07-05T03:27:25.262Z,73.83
2023-07-05T03:28:19.238Z,73.59
2023-07-05T03:29:13.269Z,74.01
2023-07-05T03:30:07.233Z,73.87
2023-07-05T03:31:13.278Z,74.40
2023-07-05T03:32:07.253Z,74.71
2023-07-05T03:32:51.288Z,74.37
2023-07-05T03:33:32.334Z,74.15
2023-07-05T03:34:12.226Z,74.10
2023-07-05T03:34:52.670Z,74.16
2023-07-05T03:35:32.266Z,73.91
2023-07-05T03:36:18.434Z,74.02
2023-07-05T03:36:58.339Z,73.70
2023-07-05T03:37:38.381Z,73.89
2023-07-05T03:38:18.278Z,74.02
2023-07-05T03:38:59.329Z,74.28
2023-07-05T03:39:39.234Z,74.20
2023-07-05T03:40:20.363Z,73.90
2023-07-05T03:41:13.236Z,73.72
2023-07-05T03:41:53.472Z,73.69
2023-07-05T03:42:33.236Z,73.82
2023-07-05T03:43:13.333Z,73.71
2023-07-05T03:43:56.244Z,73.39
2023-07-05T03:44:37.398Z,73.57
2023-07-05T03:45:18.277Z,73.71
2023-07-05T03:46:00.918Z,73.84
2023-07-05T03:46:42.295Z,73.74
2023-07-05T03:47:22.343Z,73.51
2023-07-05T03:48:03.262Z,74.16
2023-07-05T03:48:48.260Z,74.02
2023-07-05T03:49:28.348Z,73.83
2023-07-05T03:50:08.423Z,74.08
2023-07-05T03:50:48.319Z,73.74
2023-07-05T03:51:30.339Z,74.19
2023-07-05T03:52:11.257Z,73.66
2023-07-05T03:52:51.267Z,73.74
2023-07-05T03:53:32.218Z,73.70
2023-07-05T03:54:12.305Z,73.37
2023-07-05T03:54:52.250Z,73.59
2023-07-05T03:55:32.408Z,73.38
2023-07-05T03:56:17.216Z,73.49
2023-07-05T03:56:57.348Z,73.55
2023-07-05T03:57:38.231Z,73.38
2023-07-05T03:58:18.314Z,73.20
2023-07-05T03:58:59.289Z,73.32
2023-07-05T03:59:40.618Z,73.51
2023-07-05T04:00:24.223Z,73.52
2023-07-05T04:01:19.216Z,73.34
2023-07-05T04:01:59.251Z,73.53
2023-07-05T04:02:39.357Z,73.34
2023-07-05T04:03:22.223Z,73.60
2023-07-05T04:04:08.402Z,73.55
2023-07-05T04:04:50.258Z,73.36
2023-07-05T04:05:40.281Z,73.43
2023-07-05T04:06:35.240Z,73.75
2023-07-05T04:07:29.223Z,73.56
2023-07-05T04:08:23.191Z,73.77
2023-07-05T04:09:17.218Z,73.66
2023-07-05T04:10:11.208Z,73.64
2023-07-05T04:10:58.279Z,73.35
2023-07-05T04:11:32.537Z,72.98
2023-07-05T04:12:19.218Z,73.21
2023-07-05T04:12:53.340Z,73.27
2023-07-05T04:13:40.234Z,73.00
2023-07-05T04:14:14.293Z,72.75
2023-07-05T04:15:01.273Z,72.99
2023-07-05T04:15:35.258Z,72.99
2023-07-05T04:16:26.367Z,72.70
2023-07-05T04:17:00.320Z,72.65
2023-07-05T04:17:47.276Z,73.05
2023-07-05T04:18:21.515Z,72.70
2023-07-05T04:19:08.195Z,72.75
2023-07-05T04:19:42.273Z,72.90
2023-07-05T04:20:29.171Z,73.14
2023-07-05T04:21:04.251Z,72.95
2023-07-05T04:21:51.234Z,72.84
2023-07-05T04:22:25.264Z,72.64
2023-07-05T04:23:12.213Z,72.63
2023-07-05T04:23:48.295Z,72.72
2023-07-05T04:24:36.241Z,72.63
2023-07-05T04:25:10.300Z,72.49
2023-07-05T04:25:57.193Z,72.28
2023-07-05T04:26:33.267Z,72.63
2023-07-05T04:27:13.215Z,72.88
2023-07-05T04:28:07.311Z,72.74
2023-07-05T04:29:01.261Z,72.90
2023-07-05T04:29:55.219Z,72.82
2023-07-05T04:30:52.021Z,72.57
2023-07-05T04:31:46.211Z,72.57
2023-07-05T04:32:34.243Z,72.51
2023-07-05T04:33:08.275Z,72.65
2023-07-05T04:33:55.161Z,72.66
2023-07-05T04:34:29.240Z,72.69
2023-07-05T04:35:16.173Z,72.57
2023-07-05T04:35:55.260Z,72.66
2023-07-05T04:36:42.268Z,72.59
2023-07-05T04:37:25.737Z,72.61
2023-07-05T04:38:11.222Z,72.63
2023-07-05T04:38:51.261Z,72.91
2023-07-05T04:39:31.130Z,73.17
2023-07-05T04:40:12.246Z,73.13
2023-07-05T04:40:52.373Z,73.15
2023-07-05T04:41:34.256Z,73.60
2023-07-05T04:42:15.147Z,73.43
2023-07-05T04:42:55.257Z,73.45
2023-07-05T04:43:36.173Z,73.27
2023-07-05T04:44:16.226Z,73.22
2023-07-05T04:44:56.139Z,73.02
2023-07-05T04:45:36.281Z,73.03
2023-07-05T04:46:19.566Z,72.93
2023-07-05T04:47:00.240Z,72.91
2023-07-05T04:47:40.157Z,72.90
2023-07-05T04:48:20.241Z,73.00
2023-07-05T04:49:03.211Z,72.83
2023-07-05T04:49:43.223Z,72.88
2023-07-05T04:50:24.144Z,72.50
2023-07-05T04:51:06.944Z,72.30
2023-07-05T04:51:47.140Z,72.38
2023-07-05T04:52:27.252Z,72.62
2023-07-05T04:53:07.123Z,72.32
2023-07-05T04:53:47.497Z,72.68
2023-07-05T04:54:28.139Z,72.40
2023-07-05T04:55:08.268Z,72.69
2023-07-05T04:55:53.173Z,72.53
2023-07-05T04:56:33.257Z,72.58
2023-07-05T04:57:27.614Z,72.83
2023-07-05T04:58:12.299Z,72.84
2023-07-05T04:58:55.133Z,73.04
2023-07-05T04:59:43.139Z,73.25
2023-07-05T05:00:37.109Z,73.12
2023-07-05T05:01:33.285Z,73.36
2023-07-05T05:02:27.250Z,72.89
2023-07-05T05:03:21.244Z,73.11
2023-07-05T05:04:15.177Z,72.75
2023-07-05T05:05:02.334Z,72.63
2023-07-05T05:05:36.226Z,72.77
2023-07-05T05:06:23.128Z,72.79
2023-07-05T05:06:58.191Z,72.90
2023-07-05T05:07:45.115Z,72.93
2023-07-05T05:08:20.336Z,72.85
2023-07-05T05:09:07.126Z,73.03
2023-07-05T05:09:41.893Z,73.10
2023-07-05T05:10:22.175Z,73.22
2023-07-05T05:11:06.242Z,73.03
2023-07-05T05:11:46.114Z,72.75
2023-07-05T05:12:26.193Z,72.82
2023-07-05T05:13:06.115Z,72.82
2023-07-05T05:13:46.291Z,72.55
2023-07-05T05:14:27.130Z,72.50
2023-07-05T05:15:07.352Z,72.61
2023-07-05T05:15:48.160Z,72.51
2023-07-05T05:16:28.337Z,72.48
2023-07-05T05:17:08.226Z,72.50
2023-07-05T05:17:48.286Z,72.41
2023-07-05T05:18:32.204Z,72.37
2023-07-05T05:19:14.998Z,72.55
2023-07-05T05:19:55.133Z,72.31
2023-07-05T05:20:37.791Z,72.14
2023-07-05T05:21:19.157Z,72.22
2023-07-05T05:21:59.259Z,71.78
2023-07-05T05:22:40.179Z,71.79
2023-07-05T05:23:20.265Z,71.67
2023-07-05T05:24:00.132Z,71.49
2023-07-05T05:24:42.853Z,71.43
2023-07-05T05:25:24.229Z,71.40
2023-07-05T05:26:05.307Z,71.53
2023-07-05T05:26:46.147Z,71.33
2023-07-05T05:27:26.230Z,71.68
2023-07-05T05:28:07.140Z,71.40
2023-07-05T05:28:47.292Z,71.37
2023-07-05T05:29:27.156Z,71.28
2023-07-05T05:30:07.247Z,71.13
2023-07-05T05:30:51.243Z,70.91
2023-07-05T05:31:31.677Z,70.52
2023-07-05T05:32:13.152Z,70.47
2023-07-05T05:32:54.278Z,70.34
2023-07-05T05:33:34.182Z,70.12
2023-07-05T05:34:18.369Z,69.88
2023-07-05T05:34:58.127Z,70.05
2023-07-05T05:35:39.282Z,69.56
2023-07-05T05:36:20.120Z,69.59
2023-07-05T05:37:01.216Z,69.72
2023-07-05T05:37:42.192Z,69.32
2023-07-05T05:38:27.298Z,69.30
2023-07-05T05:39:07.125Z,69.32
2023-07-05T05:39:47.167Z,68.81
2023-07-05T05:40:27.133Z,69.10
2023-07-05T05:41:14.189Z,69.07
2023-07-05T05:41:55.160Z,68.75
2023-07-05T05:42:37.271Z,68.54
2023-07-05T05:43:18.259Z,68.52
2023-07-05T05:43:58.248Z,68.08
2023-07-05T05:44:38.103Z,68.03
2023-07-05T05:45:19.209Z,68.11
2023-07-05T05:46:00.145Z,67.95
2023-07-05T05:46:40.384Z,67.59
2023-07-05T05:47:20.130Z,67.47
2023-07-05T05:48:00.261Z,67.52
2023-07-05T05:48:40.164Z,67.34
2023-07-05T05:49:20.211Z,67.63
2023-07-05T05:50:01.189Z,67.13
2023-07-05T05:50:41.214Z,66.78
2023-07-05T05:51:22.189Z,66.47
2023-07-05T05:52:02.601Z,66.70
2023-07-05T05:52:44.103Z,66.11
2023-07-05T05:53:25.401Z,65.98
2023-07-05T05:54:06.864Z,65.98
2023-07-05T05:54:47.212Z,66.25
2023-07-05T05:55:28.144Z,65.36
2023-07-05T05:56:08.283Z,65.40
2023-07-05T05:56:48.089Z,65.91
2023-07-05T05:57:28.227Z,65.58
2023-07-05T05:58:09.105Z,65.60
2023-07-05T05:58:49.252Z,65.51
2023-07-05T05:59:29.152Z,65.36
2023-07-05T06:00:10.996Z,65.23
2023-07-05T06:00:51.088Z,65.55
2023-07-05T06:02:03.299Z,65.57
2023-07-05T06:02:45.163Z,64.97
2023-07-05T06:03:25.321Z,65.27
2023-07-05T06:04:06.274Z,64.98
2023-07-05T06:04:47.101Z,65.29
2023-07-05T06:05:21.205Z,65.07
2023-07-05T06:06:08.091Z,64.90
2023-07-05T06:06:42.416Z,64.83
2023-07-05T06:07:29.110Z,65.06
2023-07-05T06:08:03.262Z,64.84
2023-07-05T06:08:50.371Z,64.51
2023-07-05T06:09:25.642Z,64.79
2023-07-05T06:10:06.117Z,64.80
2023-07-05T06:10:47.984Z,64.89
2023-07-05T06:11:28.085Z,64.82
2023-07-05T06:12:08.186Z,64.71
2023-07-05T06:12:49.103Z,64.70
2023-07-05T06:13:29.268Z,64.58
2023-07-05T06:14:10.112Z,64.58
2023-07-05T06:14:51.284Z,64.09
2023-07-05T06:15:31.136Z,64.37
2023-07-05T06:16:15.121Z,64.16
2023-07-05T06:16:55.142Z,64.31
2023-07-05T06:17:35.272Z,64.18
2023-07-05T06:18:15.123Z,64.58
2023-07-05T06:18:56.231Z,64.30
2023-07-05T06:19:36.108Z,63.83
2023-07-05T06:20:17.466Z,64.28
2023-07-05T06:20:57.161Z,64.36
2023-07-05T06:21:37.208Z,64.33
2023-07-05T06:22:17.139Z,64.29
2023-07-05T06:22:58.282Z,63.89
2023-07-05T06:23:38.118Z,63.81
2023-07-05T06:24:18.228Z,63.69
2023-07-05T06:24:58.125Z,63.81
2023-07-05T06:25:38.215Z,63.54
2023-07-05T06:26:19.135Z,63.45
2023-07-05T06:27:00.384Z,63.40
2023-07-05T06:27:42.103Z,63.38
2023-07-05T06:28:23.193Z,63.59
2023-07-05T06:29:03.123Z,63.84
2023-07-05T06:29:43.214Z,63.15
2023-07-05T06:30:24.137Z,62.94
2023-07-05T06:31:17.217Z,62.96
2023-07-05T06:31:57.096Z,63.08
2023-07-05T06:32:37.230Z,63.10
2023-07-05T06:33:17.090Z,62.90
2023-07-05T06:33:58.146Z,63.04
2023-07-05T06:34:39.071Z,62.86
2023-07-05T06:35:19.187Z,63.12
2023-07-05T06:36:01.060Z,63.43
2023-07-05T06:36:41.470Z,63.35
2023-07-05T06:37:22.069Z,63.36
2023-07-05T06:38:02.218Z,63.45
2023-07-05T06:38:43.051Z,62.97
2023-07-05T06:39:23.153Z,63.40
2023-07-05T06:40:03.064Z,62.85
2023-07-05T06:40:43.154Z,63.14
2023-07-05T06:41:23.060Z,63.02
2023-07-05T06:42:03.354Z,62.77
2023-07-05T06:42:44.119Z,62.50
2023-07-05T06:43:24.143Z,62.24
2023-07-05T06:44:04.150Z,62.38
2023-07-05T06:44:44.108Z,61.93
2023-07-05T06:45:24.028Z,61.66
2023-07-05T06:46:05.189Z,61.78
2023-07-05T06:46:46.139Z,61.94
2023-07-05T06:47:26.185Z,61.57
2023-07-05T06:48:06.274Z,61.13
2023-07-05T06:48:46.678Z,61.04
2023-07-05T06:49:27.052Z,61.54
2023-07-05T06:50:07.138Z,61.42
2023-07-05T06:50:48.037Z,61.28
2023-07-05T06:51:28.159Z,60.63
2023-07-05T06:52:08.035Z,61.38
2023-07-05T06:52:48.140Z,60.58
2023-07-05T06:53:47.381Z,61.08
2023-07-05T06:54:29.164Z,61.00
2023-07-05T06:55:14.054Z,60.85
2023-07-05T06:55:56.203Z,60.89
2023-07-05T06:56:36.046Z,60.43
2023-07-05T06:57:16.145Z,59.84
2023-07-05T06:57:56.024Z,59.75
2023-07-05T06:58:43.081Z,60.89
2023-07-05T06:59:37.079Z,59.93
2023-07-05T07:00:32.053Z,59.59
2023-07-05T07:01:26.097Z,59.71
2023-07-05T07:02:20.087Z,59.90
2023-07-05T07:03:14.058Z,60.05
2023-07-05T07:04:01.055Z,59.74
2023-07-05T07:04:36.169Z,59.73
2023-07-05T07:05:24.047Z,60.17
2023-07-05T07:06:01.182Z,59.86
2023-07-05T07:06:48.033Z,59.76
2023-07-05T07:07:22.139Z,60.04
2023-07-05T07:08:09.039Z,59.67
2023-07-05T07:08:44.202Z,59.76
2023-07-05T07:09:24.241Z,59.70
2023-07-05T07:10:19.042Z,59.60
2023-07-05T07:11:17.173Z,59.29
2023-07-05T07:12:11.054Z,59.30
2023-07-05T07:13:05.090Z,59.14
2023-07-05T07:14:00.080Z,58.92
2023-07-05T07:14:47.086Z,58.92
2023-07-05T07:15:21.164Z,59.14
2023-07-05T07:16:26.209Z,58.81
2023-07-05T07:17:00.176Z,58.27
2023-07-05T07:17:47.150Z,58.66
2023-07-05T07:18:21.090Z,58.75
2023-07-05T07:19:08.038Z,58.86
2023-07-05T07:19:44.067Z,58.68
2023-07-05T07:20:27.296Z,58.46
2023-07-05T07:21:07.149Z,58.05
2023-07-05T07:21:47.056Z,57.89
2023-07-05T07:22:27.166Z,57.58
2023-07-05T07:23:07.022Z,57.75
2023-07-05T07:23:48.489Z,57.65
2023-07-05T07:24:30.153Z,58.04
2023-07-05T07:25:10.159Z,57.95
2023-07-05T07:25:50.050Z,57.80
2023-07-05T07:26:32.181Z,58.01
2023-07-05T07:27:14.040Z,57.98
2023-07-05T07:27:54.175Z,57.62
2023-07-05T07:28:35.021Z,57.94
2023-07-05T07:29:15.095Z,58.01
2023-07-05T07:29:56.012Z,57.62
2023-07-05T07:30:29.929Z,57.26
2023-07-05T07:31:27.092Z,57.68
2023-07-05T07:32:01.393Z,56.92
2023-07-05T07:32:35.913Z,56.73
2023-07-05T07:33:16.044Z,57.17
2023-07-05T07:33:52.130Z,56.90
2023-07-05T07:34:25.757Z,56.88
2023-07-05T07:35:06.047Z,57.23
2023-07-05T07:35:40.175Z,56.62
2023-07-05T07:36:21.224Z,56.38
2023-07-05T07:37:01.044Z,56.50
2023-07-05T07:37:35.154Z,56.11
2023-07-05T07:38:08.787Z,56.44
2023-07-05T07:38:51.036Z,56.70
2023-07-05T07:39:25.237Z,56.42
2023-07-05T07:40:00.072Z,56.62
2023-07-05T07:40:45.040Z,56.83
2023-07-05T07:41:27.176Z,56.53
2023-07-05T07:42:08.046Z,56.82
2023-07-05T07:42:48.122Z,56.82
2023-07-05T07:43:28.080Z,56.54
2023-07-05T07:44:12.335Z,57.08
2023-07-05T07:44:52.041Z,56.64
2023-07-05T07:45:32.108Z,56.62
2023-07-05T07:46:20.064Z,56.51
2023-07-05T07:47:01.332Z,56.59
2023-07-05T07:47:42.087Z,56.51
2023-07-05T07:48:22.130Z,56.42
2023-07-05T07:49:06.021Z,56.06
2023-07-05T07:49:47.127Z,56.21
2023-07-05T07:50:27.084Z,56.32
2023-07-05T07:51:07.137Z,55.92
2023-07-05T07:51:52.022Z,55.59
2023-07-05T07:52:32.114Z,55.68
2023-07-05T07:53:12.093Z,56.09
2023-07-05T07:53:52.260Z,56.08
2023-07-05T07:54:38.035Z,55.64
2023-07-05T07:55:19.129Z,55.63
2023-07-05T07:55:59.026Z,55.80
2023-07-05T07:56:40.097Z,56.10
2023-07-05T07:57:20.045Z,55.82
2023-07-05T07:58:00.309Z,55.73
2023-07-05T07:58:40.055Z,55.36
2023-07-05T07:59:02.261Z,55.51
2023-07-05T07:59:24.073Z,55.17
2023-07-05T07:59:44.132Z,55.65
2023-07-05T08:00:04.149Z,55.23
2023-07-05T08:00:25.265Z,55.52
2023-07-05T08:00:45.128Z,55.69
2023-07-05T08:01:05.150Z,55.46
2023-07-05T08:01:45.135Z,55.40
2023-07-05T08:02:07.942Z,55.43
2023-07-05T08:03:00.016Z,55.22
2023-07-05T08:03:21.120Z,55.27
2023-07-05T08:03:43.074Z,55.23
2023-07-05T08:04:06.312Z,55.47
2023-07-05T08:04:26.193Z,55.62
2023-07-05T08:04:56.361Z,55.43
2023-07-05T08:05:26.131Z,55.41
2023-07-05T08:05:46.141Z,55.50
2023-07-05T08:06:08.103Z,55.68
2023-07-05T08:06:37.431Z,55.09
2023-07-05T08:07:16.119Z,54.98
2023-07-05T08:07:55.503Z,55.18
2023-07-05T08:08:34.001Z,55.69
2023-07-05T08:09:16.045Z,55.59
2023-07-05T08:09:51.361Z,55.96
2023-07-05T08:10:23.804Z,55.62
2023-07-05T08:11:02.017Z,55.31
2023-07-05T08:11:36.153Z,55.61
2023-07-05T08:12:10.354Z,55.41
2023-07-05T08:12:50.036Z,55.34
2023-07-05T08:13:24.169Z,55.53
2023-07-05T08:13:57.967Z,55.44
2023-07-05T08:14:38.095Z,55.31
2023-07-05T08:15:13.141Z,55.19
2023-07-05T08:15:46.798Z,55.41
2023-07-05T08:16:29.122Z,55.61
2023-07-05T08:17:04.133Z,55.30
2023-07-05T08:17:37.907Z,55.46
2023-07-05T08:18:18.000Z,55.61
2023-07-05T08:18:53.110Z,55.39
2023-07-05T08:19:27.865Z,55.24
2023-07-05T08:20:09.014Z,54.82
2023-07-05T08:20:43.081Z,55.11
2023-07-05T08:21:20.732Z,55.13
2023-07-05T08:22:02.009Z,55.24
2023-07-05T08:22:36.179Z,55.61
2023-07-05T08:23:09.778Z,54.86
2023-07-05T08:23:52.069Z,54.92
2023-07-05T08:24:27.547Z,55.12
2023-07-05T08:25:01.865Z,54.97
2023-07-05T08:25:46.069Z,55.19
2023-07-05T08:26:21.411Z,55.05
2023-07-05T08:26:57.591Z,55.18
2023-07-05T08:27:39.065Z,55.19
2023-07-05T08:28:14.389Z,54.83
2023-07-05T08:28:49.032Z,54.82
2023-07-05T08:29:30.096Z,54.94
2023-07-05T08:30:08.177Z,55.53
2023-07-05T08:30:42.079Z,54.84
2023-07-05T08:31:23.144Z,54.84
2023-07-05T08:31:58.509Z,54.92
2023-07-05T08:32:34.296Z,55.13
2023-07-05T08:33:15.090Z,55.04
2023-07-05T08:33:49.107Z,54.87
2023-07-05T08:34:24.100Z,54.90
2023-07-05T08:35:04.963Z,54.87
2023-07-05T08:35:39.060Z,54.88
2023-07-05T08:36:21.823Z,54.49
2023-07-05T08:37:03.185Z,54.82
2023-07-05T08:37:37.682Z,54.92
2023-07-05T08:38:11.920Z,55.10
2023-07-05T08:39:02.145Z,54.68
2023-07-05T08:39:37.164Z,55.06
2023-07-05T08:40:12.739Z,55.02
2023-07-05T08:40:58.192Z,54.92
2023-07-05T08:41:49.194Z,54.06
2023-07-05T08:43:07.146Z,54.35
2023-07-05T08:43:54.249Z,54.06
2023-07-05T08:45:17.027Z,54.39
2023-07-05T08:46:05.390Z,54.46
2023-07-05T08:46:47.192Z,54.90
2023-07-05T08:47:39.257Z,54.46
2023-07-05T08:48:22.109Z,54.42
2023-07-05T08:49:18.319Z,54.04
2023-07-05T08:51:50.115Z,53.42
2023-07-05T08:52:39.228Z,53.70
2023-07-05T08:53:28.034Z,53.77
2023-07-05T08:54:13.291Z,53.37
2023-07-05T08:55:01.086Z,53.80
2023-07-05T08:56:04.652Z,53.52
2023-07-05T08:56:52.088Z,53.67
2023-07-05T08:58:00.256Z,53.72
2023-07-05T08:58:56.068Z,53.26
2023-07-05T09:00:01.191Z,53.45
2023-07-05T09:00:55.654Z,53.15
2023-07-05T09:01:27.298Z,53.00
2023-07-05T09:01:51.477Z,52.85
2023-07-05T09:02:17.100Z,52.87
2023-07-05T09:02:37.194Z,53.07
2023-07-05T09:02:59.216Z,53.01
2023-07-05T09:03:20.107Z,52.98
2023-07-05T09:03:42.409Z,53.05
2023-07-05T09:04:04.095Z,53.02
2023-07-05T09:04:36.166Z,52.73
2023-07-05T09:04:57.082Z,52.59
2023-07-05T09:05:34.303Z,53.01
2023-07-05T09:06:05.005Z,52.64
2023-07-05T09:07:03.217Z,52.61
2023-07-05T09:08:11.085Z,52.54
2023-07-05T09:09:44.031Z,52.97
2023-07-05T09:10:22.722Z,52.25
2023-07-05T09:11:13.394Z,52.09
2023-07-05T09:12:08.799Z,51.85
2023-07-05T09:13:17.171Z,50.78
2023-07-05T09:13:43.673Z,50.60
2023-07-05T09:15:00.055Z,51.03
2023-07-05T09:15:39.426Z,50.49